createdAt,value
2022-09-24T00:04:48.410Z,960.79
2022-09-24T00:09:50.065Z,960.88
2022-09-24T00:14:51.910Z,960.84
2022-09-24T00:19:53.497Z,960.76
2022-09-24T00:24:54.726Z,960.76
2022-09-24T00:29:56.610Z,960.69
2022-09-24T00:34:58.271Z,960.71
2022-09-24T00:40:00.047Z,960.76
2022-09-24T00:45:01.326Z,960.69
2022-09-24T00:50:03.250Z,960.64
2022-09-24T00:55:04.694Z,960.52
2022-09-24T01:00:06.241Z,960.43
2022-09-24T01:05:08.277Z,960.44
2022-09-24T01:10:10.025Z,960.42
2022-09-24T01:15:11.391Z,960.44
2022-09-24T01:20:13.223Z,960.31
2022-09-24T01:25:14.927Z,960.27
2022-09-24T01:30:16.845Z,960.22
2022-09-24T01:35:18.620Z,960.17
2022-09-24T01:40:20.057Z,960.17
2022-09-24T01:45:22.025Z,960.09
2022-09-24T01:50:24.112Z,960.02
2022-09-24T01:55:25.461Z,959.98
2022-09-24T02:00:27.302Z,959.93
2022-09-24T02:05:29.225Z,959.89
2022-09-24T02:10:30.569Z,959.86
2022-09-24T02:15:32.894Z,959.79
2022-09-24T02:20:33.551Z,959.85
2022-09-24T02:25:35.298Z,959.77
2022-09-24T02:30:36.994Z,959.76
2022-09-24T02:35:38.287Z,959.73
2022-09-24T02:40:40.038Z,959.67
2022-09-24T02:45:41.566Z,959.62
2022-09-24T02:50:43.448Z,959.63
2022-09-24T02:55:45.293Z,959.57
2022-09-24T03:00:46.680Z,959.45
2022-09-24T03:05:48.072Z,959.44
2022-09-24T03:10:50.206Z,959.42
2022-09-24T03:15:52.061Z,959.41
2022-09-24T03:20:53.368Z,959.49
2022-09-24T03:25:55.293Z,959.51
2022-09-24T03:30:56.745Z,959.45
2022-09-24T03:35:58.218Z,959.51
2022-09-24T03:40:59.998Z,959.59
2022-09-24T03:46:02.037Z,959.5
2022-09-24T03:51:03.383Z,959.5
2022-09-24T03:56:05.232Z,959.36
2022-09-24T04:01:07.258Z,959.32
2022-09-24T04:06:08.830Z,959.35
2022-09-24T04:11:10.291Z,959.27
2022-09-24T04:16:11.886Z,959.19
2022-09-24T04:21:13.121Z,959.16
2022-09-24T04:26:14.754Z,959.19
2022-09-24T04:31:16.224Z,959.07
2022-09-24T04:36:18.265Z,959.12
2022-09-24T04:41:19.834Z,959.17
2022-09-24T04:46:21.481Z,959.13
2022-09-24T04:51:23.585Z,959.09
2022-09-24T04:56:25.212Z,959.17
2022-09-24T05:01:27.465Z,959.19
2022-09-24T05:06:29.183Z,959.1
2022-09-24T05:11:30.685Z,959.07
2022-09-24T05:16:32.781Z,959
2022-09-24T05:21:34.272Z,958.98
2022-09-24T05:26:36.346Z,959.01
2022-09-24T05:31:37.752Z,959.06
2022-09-24T05:36:39.166Z,959.16
2022-09-24T05:41:41.098Z,959.16
2022-09-24T05:46:43.155Z,959.14
2022-09-24T05:51:44.896Z,959.14
2022-09-24T05:56:46.553Z,959.06
2022-09-24T06:01:48.322Z,959.09
2022-09-24T06:06:50.136Z,959.18
2022-09-24T06:11:52.304Z,959.11
2022-09-24T06:16:53.637Z,959.14
2022-09-24T06:21:54.845Z,959.07
2022-09-24T06:26:56.401Z,959.2
2022-09-24T06:31:58.280Z,959.27
2022-09-24T06:36:59.732Z,959.31
2022-09-24T06:42:01.232Z,959.22
2022-09-24T06:47:03.056Z,959.13
2022-09-24T06:52:04.194Z,959.19
2022-09-24T06:57:05.801Z,959.24
2022-09-24T07:02:07.423Z,959.22
2022-09-24T07:07:08.656Z,959.29
2022-09-24T07:12:10.352Z,959.33
2022-09-24T07:17:12.378Z,959.34
2022-09-24T07:22:14.157Z,959.3
2022-09-24T07:27:15.646Z,959.36
2022-09-24T07:32:17.747Z,959.35
2022-09-24T08:22:35.532Z,959.63
2022-09-24T08:32:38.579Z,959.68
2022-09-24T08:42:41.491Z,959.67
2022-09-24T08:47:42.852Z,959.74
2022-09-24T08:52:44.797Z,959.75
2022-09-24T09:02:48.558Z,959.74
2022-09-24T09:07:50.303Z,959.78
2022-09-24T09:12:51.598Z,959.85
2022-09-24T09:17:53.836Z,959.84
2022-09-24T09:22:55.561Z,959.9
2022-09-24T09:27:57.273Z,959.85
2022-09-24T09:32:59.021Z,959.88
2022-09-24T09:38:00.164Z,959.96
2022-09-24T09:43:01.901Z,959.9
2022-09-24T09:48:03.610Z,959.95
2022-09-24T09:53:05.477Z,959.91
2022-09-24T09:58:07.138Z,959.95
2022-09-24T10:03:09.069Z,959.9
2022-09-24T10:08:10.892Z,959.94
2022-09-24T10:13:12.669Z,959.98
2022-09-24T10:18:14.419Z,959.95
2022-09-24T10:23:16.534Z,960
2022-09-24T10:28:18.264Z,960.03
2022-09-24T10:33:19.520Z,959.99
2022-09-24T10:38:20.889Z,960
2022-09-24T10:43:22.571Z,959.97
2022-09-24T10:48:23.992Z,959.95
2022-09-24T10:53:25.767Z,959.9
2022-09-24T10:58:27.025Z,959.9
2022-09-24T11:03:28.673Z,959.9
2022-09-24T11:08:30.298Z,959.87
2022-09-24T11:13:32.012Z,959.97
2022-09-24T11:18:34.239Z,959.98
2022-09-24T11:23:35.864Z,959.91
2022-09-24T11:28:37.744Z,959.91
2022-09-24T11:33:39.714Z,959.9
2022-09-24T11:38:41.793Z,959.86
2022-09-24T11:43:43.668Z,959.75
2022-09-24T11:48:45.643Z,959.76
2022-09-24T11:53:47.588Z,959.79
2022-09-24T11:58:49.045Z,959.77
2022-09-24T12:03:50.750Z,959.76
2022-09-24T12:08:52.109Z,959.78
2022-09-24T12:13:53.344Z,959.81
2022-09-24T12:18:55.531Z,959.81
2022-09-24T12:24:02.619Z,959.8
2022-09-24T12:28:58.715Z,959.68
2022-09-24T12:34:00.280Z,959.69
2022-09-24T12:39:02.125Z,959.66
2022-09-24T12:44:03.609Z,959.51
2022-09-24T12:49:05.100Z,959.56
2022-09-24T12:54:06.781Z,959.52
2022-09-24T12:59:08.185Z,959.49
2022-09-24T13:04:09.513Z,959.48
2022-09-24T13:09:17.982Z,959.47
2022-09-24T13:14:18.502Z,959.44
2022-09-24T13:19:20.277Z,959.48
2022-09-24T13:24:22.349Z,959.48
2022-09-24T13:29:24.367Z,959.46
2022-09-24T13:34:26.572Z,959.49
2022-09-24T13:39:27.987Z,959.55
2022-09-24T13:44:29.810Z,959.47
2022-09-24T13:49:31.212Z,959.42
2022-09-24T13:54:32.690Z,959.43
2022-09-24T13:59:34.155Z,959.38
2022-09-24T14:04:35.747Z,959.42
2022-09-24T14:09:37.749Z,959.41
2022-09-24T14:14:39.296Z,959.45
2022-09-24T14:19:41.426Z,959.52
2022-09-24T14:24:43.419Z,959.47
2022-09-24T14:29:48.031Z,959.42
2022-09-24T14:34:46.439Z,959.38
2022-09-24T14:39:48.028Z,959.39
2022-09-24T14:44:49.888Z,959.28
2022-09-24T14:49:51.262Z,959.24
2022-09-24T14:54:52.856Z,959.28
2022-09-24T14:59:54.219Z,959.26
2022-09-24T15:04:55.758Z,959.21
2022-09-24T15:09:56.950Z,959.21
2022-09-24T15:14:58.465Z,959.24
2022-09-24T15:20:00.527Z,959.25
2022-09-24T15:25:02.881Z,959.31
2022-09-24T15:30:04.453Z,959.29
2022-09-24T15:35:05.673Z,959.28
2022-09-24T15:40:07.089Z,959.23
2022-09-24T15:45:08.661Z,959.19
2022-09-24T15:50:10.614Z,959.17
2022-09-24T15:55:11.924Z,959.21
2022-09-24T16:00:13.520Z,959.16
2022-09-24T16:05:14.930Z,959.09
2022-09-24T16:10:16.141Z,959.07
2022-09-24T16:15:18.240Z,959.04
2022-09-24T16:20:19.834Z,959.02
2022-09-24T16:25:21.273Z,959.03
2022-09-24T16:30:23.324Z,959
2022-09-24T16:35:25.022Z,959.05
2022-09-24T16:40:27.256Z,959.11
2022-09-24T16:45:28.822Z,959.08
2022-09-24T16:50:31.086Z,959.15
2022-09-24T16:55:32.372Z,959.18
2022-09-24T17:00:33.912Z,959.19
2022-09-24T17:05:35.314Z,959.19
2022-09-24T17:10:40.237Z,959.22
2022-09-24T17:15:38.813Z,959.19
2022-09-24T17:20:40.694Z,959.19
2022-09-24T17:25:42.215Z,959.24
2022-09-24T17:30:43.756Z,959.22
2022-09-24T17:35:45.383Z,959.23
2022-09-24T17:40:46.760Z,959.24
2022-09-24T17:45:48.290Z,959.28
2022-09-24T17:50:50.370Z,959.25
2022-09-24T17:55:51.653Z,959.28
2022-09-24T18:00:53.784Z,959.32
2022-09-24T18:05:55.745Z,959.35
2022-09-24T18:10:57.714Z,959.33
2022-09-24T18:15:59.533Z,959.32
2022-09-24T18:21:00.963Z,959.35
2022-09-24T18:26:02.675Z,959.35
2022-09-24T18:31:04.451Z,959.41
2022-09-24T18:36:06.524Z,959.4
2022-09-24T18:41:08.148Z,959.43
2022-09-24T18:46:09.636Z,959.5
2022-09-24T18:51:10.997Z,959.52
2022-09-24T18:56:12.751Z,959.52
2022-09-24T19:01:14.088Z,959.57
2022-09-24T19:06:16.066Z,959.61
2022-09-24T19:11:18.176Z,959.6
2022-09-24T19:16:19.741Z,959.62
2022-09-24T19:21:21.122Z,959.6
2022-09-24T19:26:22.436Z,959.58
2022-09-24T19:31:24.614Z,959.56
2022-09-24T19:36:26.228Z,959.56
2022-09-24T19:41:27.666Z,959.56
2022-09-24T19:46:29.298Z,959.62
2022-09-24T19:51:31.233Z,959.58
2022-09-24T19:56:32.417Z,959.54
2022-09-24T20:01:34.204Z,959.53
2022-09-24T20:06:35.471Z,959.53
2022-09-24T20:11:37.322Z,959.55
2022-09-24T20:16:39.343Z,959.44
2022-09-24T20:21:41.190Z,959.51
2022-09-24T20:26:42.477Z,959.48
2022-09-24T20:31:43.826Z,959.42
2022-09-24T20:36:45.146Z,959.46
2022-09-24T20:41:47.180Z,959.4
2022-09-24T20:46:48.496Z,959.45
2022-09-24T20:51:54.241Z,959.42
2022-09-24T20:56:51.880Z,959.42
2022-09-24T21:01:53.185Z,959.39
2022-09-24T21:06:55.074Z,959.38
2022-09-24T21:11:57.010Z,959.38
2022-09-24T21:16:58.432Z,959.44
2022-09-24T21:21:59.935Z,959.5
2022-09-24T21:27:01.246Z,959.43
2022-09-24T21:32:02.943Z,959.42
2022-09-24T21:37:04.715Z,959.45
2022-09-24T21:42:06.749Z,959.45
2022-09-24T21:47:08.800Z,959.47
2022-09-24T21:52:10.620Z,959.45
2022-09-24T21:57:12.331Z,959.45
2022-09-24T22:12:17.655Z,959.5
2022-09-24T22:17:19.201Z,959.48
2022-09-24T23:02:33.762Z,959.2
2022-09-24T23:07:35.193Z,959.18
2022-09-24T23:12:36.575Z,959.09
2022-09-24T23:17:38.545Z,959.09
2022-09-24T23:22:40.455Z,959.02
2022-09-24T23:27:41.968Z,959.11
2022-09-24T23:37:45.207Z,959.11
2022-09-24T23:42:47.099Z,959.12
2022-09-24T23:47:49.171Z,959.19
2022-09-24T23:52:51.302Z,959.24
2022-09-24T23:57:53.442Z,959.25
